Record high temperature 44.9°C Record low temperature -0.3°C Record high gust 85.1 km/h Record high average 77.7 km/h Record daily rain 383.8 mm Record low windchill -4.5°C Record high barometer 1043.6 hPa Record low barometer 978.0 hPa
Daily high pressure 1017.2 mb Daily low pressure 1015.3 mb Daily low windchill 20.0°C Daily high heat index 25.3°C Daily high gust speed 28.1 kmh NNW Daily high average speed 13.7 kmh NE
Estación de MeteoMurcia.com -------- Murcia-Puente Tocinos
Ultima grabación a: 13:40 Data: 22 September 2017, time of next update: 13:50
Tiempo actualmostly clear Temperatura actual25.3°C (77.5°F) (Indice de Calor25.3°C ), Temperatura aparente 25.1°C
Temperatura máxima (desde medianoche)25.3°C at: 13:34 Temperatura mínima (desde medianoche)20.0°C at: 06:37
Velocidad media del viento (diez minutos)13.0 kmh (7.0 kts) Dirección del viento (diez minutos)NNE (22°)
Indice de Calor25.3°C ráfagas maxima (última hora)28.1 kmh (15.2 kts) at: 13:20
ráfagas maxima (desde medianoche)28.1 kmh (15.2 kts) at: 13:20 Maximo media de un minuto (desde medianoche)13.7 kmh (7.4 kts) at: 13:17
Lluvia (última hora)0.0 mm Lluvia (desde medianoche)0.0 mm (0.00 in.)---
Lluvia Este mes 9.4 mm (0.37 in.) Lluvia Hasta la fecha este año194.1 mm (7.64 in.)
Lluvia máxima por minuto (última hora)0.0 mm/min Lluvia maxima por hora (últimas 6 horas)0.0 mm/hora
Lluvia de ayer 0.0 mm Punto de rocío 16.7°C (Wet Bulb :19.9°C )
Humedad 59 %, Humidex 30.4°C Barómetro corregido a msl1017.0 mb
cambio de presión-0.1 mb (última hora) Tendencia (últimas 1 hora)ESTACIONARIO
cambio de presión (últimas 12 horas)+1.5 mb cambio de presión (últimas 6 horas)+1.3 mb
Current Temp. Interna 29.7°C
Current Hum. Interna 46%


Última imagen cámara web


Weather report/warning/Metars

Alicante / El Altet, Spain (LEAL) 38-17N 000-33W 31M
Sep 22, 2017 - 07:00 AM EDT / 2017.09.22 1100 UTC
Wind: from the E (080 degrees) at 17 MPH (15 KT) (direction variable):0
Visibility: greater than 7 mile(s):0
Sky conditions: mostly clear
Temperature: 77 F (25 C)
Dew Point: 64 F (18 C)
Relative Humidity: 65%
Pressure (altimeter): 30.09 in. Hg (1019 hPa)
ob: LEAL 221100Z 08015KT 050V110 9999 FEW025 25/18 Q1019 NOSIG
cycle: 11
Murcia / San Javier, Spain (LELC) 37-47N 000-48W 3M
Sep 22, 2017 - 07:00 AM EDT / 2017.09.22 1100 UTC
Wind: from the ENE (060 degrees) at 13 MPH (11 KT) (direction variable):0
Visibility: greater than 7 mile(s):0
Sky conditions: partly cloudy
Temperature: 78 F (26 C)
Dew Point: 64 F (18 C)
Relative Humidity: 61%
Pressure (altimeter): 30.09 in. Hg (1019 hPa)
ob: LELC 221100Z 06011KT 030V090 9999 SCT022 26/18 Q1019 NOSIG
cycle: 11
Murcia / Alcantarilla, Spain (LERI) 37-57N 001-14W 75M
Sep 22, 2017 - 07:00 AM EDT / 2017.09.22 1100 UTC
Wind: from the NE (050 degrees) at 9 MPH (8 KT) (direction variable):0
Visibility: greater than 7 mile(s):0
Sky conditions: partly cloudy
Temperature: 77 F (25 C)
Dew Point: 62 F (17 C)
Relative Humidity: 61%
Pressure (altimeter): 30.09 in. Hg (1019 hPa)
ob: LERI 221100Z 05008KT 010V100 9999 FEW025 SCT038 25/17 Q1019 NOSIG
cycle: 11
Gerona / Costa Brava, Spain (LEGE) 41-54N 002-46E 129M
Sep 22, 2017 - 07:00 AM EDT / 2017.09.22 1100 UTC
Wind: Variable at 2 MPH (2 KT):0
Visibility: greater than 7 mile(s):0
Sky conditions: mostly clear
Weather: Towering cumulus clouds observed
Temperature: 73 F (23 C)
Dew Point: 57 F (14 C)
Relative Humidity: 56%
Pressure (altimeter): 30.12 in. Hg (1020 hPa)
ob: LEGE 221100Z VRB02KT 9999 FEW025 FEW030TCU 23/14 Q1020
cycle: 11
Madri-Colmenar, Spain (LECV) 40-39N 003-44W
Sep 22, 2017 - 07:00 AM EDT / 2017.09.22 1100 UTC
Wind: from the E (100 degrees) at 6 MPH (5 KT):0
Visibility: greater than 7 mile(s):0
Sky conditions: mostly clear
Temperature: 71 F (22 C)
Dew Point: 51 F (11 C)
Relative Humidity: 49%
Pressure (altimeter): 30.15 in. Hg (1021 hPa)
ob: LECV 221100Z 10005KT 9999 FEW060 22/11 Q1021
cycle: 11
Asturias / Aviles, Spain (LEAS) 43-33N 006-02W 130M
Sep 22, 2017 - 07:00 AM EDT / 2017.09.22 1100 UTC
Wind: from the E (090 degrees) at 6 MPH (5 KT) (direction variable):0
Visibility: greater than 7 mile(s):0
Sky conditions: partly cloudy
Temperature: 62 F (17 C)
Dew Point: 57 F (14 C)
Relative Humidity: 82%
Pressure (altimeter): 30.21 in. Hg (1023 hPa)
ob: LEAS 221100Z 09005KT 060V120 9999 SCT020 SCT040 17/14 Q1023 NOSIG
cycle: 11
Almeria / Aeropuerto, Spain (LEAM) 36-51N 002-23W 21M
Sep 22, 2017 - 07:00 AM EDT / 2017.09.22 1100 UTC
Wind: from the E (080 degrees) at 14 MPH (12 KT) (direction variable):0
Visibility: greater than 7 mile(s):0
Sky conditions: mostly clear
Temperature: 82 F (28 C)
Dew Point: 60 F (16 C)
Relative Humidity: 48%
Pressure (altimeter): 30.03 in. Hg (1017 hPa)
ob: LEAM 221100Z 08012KT 050V120 9999 FEW025 28/16 Q1017
cycle: 11
Pamplona / Noain, Spain (LEPP) 42-46N 001-38W 453M
Sep 22, 2017 - 07:00 AM EDT / 2017.09.22 1100 UTC
Wind: Calm:0
Visibility: greater than 7 mile(s):0
Sky conditions: mostly clear
Temperature: 57 F (14 C)
Dew Point: 55 F (13 C)
Relative Humidity: 93%
Pressure (altimeter): 30.21 in. Hg (1023 hPa)
ob: LEPP 221100Z 00000KT 9999 FEW006 14/13 Q1023
cycle: 11
Badajoz / Talavera La Real, Spain (LEBZ) 38-53N 006-49W 192M
Sep 22, 2017 - 07:00 AM EDT / 2017.09.22 1100 UTC
Wind: from the W (260 degrees) at 1 MPH (1 KT):0
Visibility: greater than 7 mile(s):0
Temperature: 75 F (24 C)
Dew Point: 59 F (15 C)
Relative Humidity: 57%
Pressure (altimeter): 30.06 in. Hg (1018 hPa)
ob: LEBZ 221100Z 26001KT CAVOK 24/15 Q1018
cycle: 11
Albacete / Los Llanos, Spain (LEAB) 38-57N 001-51W 704M
Sep 22, 2017 - 07:00 AM EDT / 2017.09.22 1100 UTC
Wind: from the SE (140 degrees) at 9 MPH (8 KT) (direction variable):0
Visibility: greater than 7 mile(s):0
Temperature: 73 F (23 C)
Dew Point: 51 F (11 C)
Relative Humidity: 46%
Pressure (altimeter): 30.15 in. Hg (1021 hPa)
ob: LEAB 221100Z 14008KT 100V190 CAVOK 23/11 Q1021 NOSIG
cycle: 11



La informacion se graba a intervalos de 2 minutos, pero hay info grabada cada minuto. Optimizado para 800*600 y Color verdadero. Use el boton de

Use the RECARGA en su navegador para recojer la ulima info.

Clicar aquí para regarga diaria de medias/extremas del mes














Created by "Weather Display" software version 10.37S at this start time/date 14:37:06 15/08/2017

La estación de MeteoMurcia.com, publica sus datos en los siguientes proyectos:

Meteoclimatic www.awekas.at

W3Counter
Web Analytics